createdAt,value
2018-10-07T00:00:51.308Z,20.00
2018-10-07T00:01:51.351Z,20.00
2018-10-07T00:02:51.390Z,19.50
2018-10-07T00:03:51.430Z,20.20
2018-10-07T00:04:51.473Z,20.60
2018-10-07T00:05:51.519Z,20.20
2018-10-07T00:06:51.554Z,22.10
2018-10-07T00:07:51.602Z,19.60
2018-10-07T00:08:51.634Z,20.20
2018-10-07T00:09:51.674Z,19.90
2018-10-07T00:10:51.715Z,22.70
2018-10-07T00:11:51.755Z,23.50
2018-10-07T00:12:51.795Z,22.10
2018-10-07T00:13:51.836Z,23.00
2018-10-07T00:14:51.880Z,20.00
2018-10-07T00:15:51.917Z,19.50
2018-10-07T00:16:51.958Z,19.50
2018-10-07T00:17:51.999Z,19.40
2018-10-07T00:18:52.039Z,19.40
2018-10-07T00:19:52.084Z,22.50
2018-10-07T00:20:52.129Z,20.10
2018-10-07T00:21:52.163Z,21.80
2018-10-07T00:22:52.202Z,20.70
2018-10-07T00:23:52.241Z,22.80
2018-10-07T00:24:52.283Z,19.60
2018-10-07T00:25:52.326Z,24.20
2018-10-07T00:26:52.365Z,21.10
2018-10-07T00:27:52.407Z,21.20
2018-10-07T00:28:52.446Z,22.70
2018-10-07T00:29:52.487Z,20.00
2018-10-07T00:30:52.529Z,20.10
2018-10-07T00:31:52.570Z,22.80
2018-10-07T00:32:52.608Z,21.50
2018-10-07T00:33:52.656Z,21.70
2018-10-07T00:34:52.691Z,21.90
2018-10-07T00:35:52.730Z,21.00
2018-10-07T00:36:52.775Z,19.90
2018-10-07T00:37:52.817Z,21.90
2018-10-07T00:38:52.854Z,22.60
2018-10-07T00:39:52.894Z,24.30
2018-10-07T00:40:52.933Z,21.80
2018-10-07T00:41:52.974Z,19.90
2018-10-07T00:42:53.019Z,20.50
2018-10-07T00:43:53.056Z,19.80
2018-10-07T00:44:53.098Z,20.20
2018-10-07T00:45:53.139Z,20.70
2018-10-07T00:46:53.182Z,19.70
2018-10-07T00:47:53.217Z,17.60
2018-10-07T00:48:53.359Z,17.90
2018-10-07T00:49:53.303Z,18.10
2018-10-07T00:50:53.344Z,17.00
2018-10-07T00:51:53.380Z,18.10
2018-10-07T00:52:53.421Z,18.40
2018-10-07T00:53:53.472Z,17.00
2018-10-07T00:54:53.502Z,17.20
2018-10-07T00:55:53.643Z,17.70
2018-10-07T00:56:53.583Z,16.70
2018-10-07T00:57:53.687Z,16.80
2018-10-07T00:58:53.663Z,16.20
2018-10-07T00:59:53.705Z,17.00
2018-10-07T01:00:53.746Z,16.90
2018-10-07T01:01:53.788Z,16.70
2018-10-07T01:02:53.826Z,17.70
2018-10-07T01:03:53.870Z,17.20
2018-10-07T01:04:53.905Z,17.20
2018-10-07T01:05:53.947Z,18.60
2018-10-07T01:06:53.992Z,17.00
2018-10-07T01:07:54.029Z,17.30
2018-10-07T01:08:54.070Z,16.80
2018-10-07T01:09:54.111Z,16.60
2018-10-07T01:10:54.149Z,17.00
2018-10-07T01:11:54.188Z,17.00
2018-10-07T01:12:54.228Z,17.10
2018-10-07T01:13:54.279Z,17.80
2018-10-07T01:14:54.411Z,17.40
2018-10-07T01:15:54.353Z,16.30
2018-10-07T01:16:54.393Z,17.00
2018-10-07T01:17:54.432Z,17.70
2018-10-07T01:18:54.480Z,17.00
2018-10-07T01:19:54.514Z,17.80
2018-10-07T01:20:54.555Z,16.20
2018-10-07T01:21:54.594Z,16.50
2018-10-07T01:22:54.633Z,16.90
2018-10-07T01:23:54.673Z,16.80
2018-10-07T01:24:54.714Z,17.70
2018-10-07T01:25:54.754Z,17.60
2018-10-07T01:26:54.795Z,16.00
2018-10-07T01:27:54.843Z,17.40
2018-10-07T01:28:54.874Z,17.00
2018-10-07T01:29:54.915Z,18.50
2018-10-07T01:30:54.956Z,16.20
2018-10-07T01:31:55.003Z,16.40
2018-10-07T01:32:55.037Z,16.90
2018-10-07T01:33:55.084Z,16.60
2018-10-07T01:34:55.126Z,17.70
2018-10-07T01:35:55.158Z,17.50
2018-10-07T01:36:55.198Z,18.50
2018-10-07T01:37:55.239Z,20.00
2018-10-07T01:38:55.280Z,19.30
2018-10-07T01:39:55.319Z,16.80
2018-10-07T01:40:55.462Z,20.30
2018-10-07T01:41:55.399Z,18.70
2018-10-07T01:42:55.439Z,17.60
2018-10-07T01:43:55.484Z,19.00
2018-10-07T01:44:55.519Z,18.80
2018-10-07T01:45:55.561Z,19.80
2018-10-07T01:46:55.601Z,21.20
2018-10-07T01:47:55.641Z,17.10
2018-10-07T01:48:55.682Z,19.70
2018-10-07T01:49:55.723Z,18.20
2018-10-07T01:50:55.822Z,17.90
2018-10-07T01:51:55.803Z,17.50
2018-10-07T01:52:55.842Z,18.30
2018-10-07T01:53:55.882Z,17.30
2018-10-07T01:54:55.923Z,18.40
2018-10-07T01:55:55.968Z,17.20
2018-10-07T01:56:56.011Z,17.10
2018-10-07T01:57:56.052Z,17.30
2018-10-07T01:58:56.088Z,17.40
2018-10-07T01:59:56.124Z,18.20
2018-10-07T02:00:56.168Z,18.00
2018-10-07T02:01:56.204Z,17.60
2018-10-07T02:02:56.253Z,19.60
2018-10-07T02:03:56.286Z,17.80
2018-10-07T02:04:56.339Z,19.30
2018-10-07T02:05:56.366Z,19.30
2018-10-07T02:06:56.406Z,20.30
2018-10-07T02:07:56.449Z,17.90
2018-10-07T02:08:56.494Z,17.30
2018-10-07T02:09:56.527Z,19.50
2018-10-07T02:10:56.566Z,18.60
2018-10-07T02:11:56.609Z,19.10
2018-10-07T02:12:56.645Z,17.50
2018-10-07T02:13:56.772Z,19.50
2018-10-07T02:14:56.726Z,18.00
2018-10-07T02:15:56.775Z,16.90
2018-10-07T02:16:56.806Z,17.20
2018-10-07T02:17:56.846Z,17.30
2018-10-07T02:18:56.886Z,18.40
2018-10-07T02:19:56.928Z,18.70
2018-10-07T02:20:56.967Z,20.30
2018-10-07T02:21:57.007Z,18.20
2018-10-07T02:22:57.046Z,18.50
2018-10-07T02:23:57.087Z,18.00
2018-10-07T02:24:57.127Z,17.50
2018-10-07T02:25:57.167Z,19.60
2018-10-07T02:26:57.208Z,18.10
2018-10-07T02:27:57.246Z,16.40
2018-10-07T02:28:57.287Z,16.40
2018-10-07T02:29:57.327Z,17.50
2018-10-07T02:30:57.586Z,17.10
2018-10-07T02:31:57.412Z,16.70
2018-10-07T02:32:57.453Z,16.70
2018-10-07T02:33:57.489Z,17.70
2018-10-07T02:34:57.530Z,19.70
2018-10-07T02:35:57.574Z,17.10
2018-10-07T02:36:57.608Z,19.20
2018-10-07T02:37:57.734Z,19.30
2018-10-07T02:38:57.694Z,16.20
2018-10-07T02:39:57.729Z,16.40
2018-10-07T02:40:57.767Z,20.30
2018-10-07T02:41:57.811Z,20.70
2018-10-07T02:42:57.859Z,19.00
2018-10-07T02:43:57.894Z,18.00
2018-10-07T02:44:57.927Z,17.60
2018-10-07T02:45:57.968Z,19.10
2018-10-07T02:46:58.008Z,18.70
2018-10-07T02:47:58.049Z,18.10
2018-10-07T02:48:58.092Z,17.00
2018-10-07T02:49:58.134Z,16.20
2018-10-07T02:50:58.174Z,18.80
2018-10-07T02:51:58.225Z,17.80
2018-10-07T02:52:58.256Z,19.80
2018-10-07T02:53:58.289Z,18.80
2018-10-07T02:54:58.335Z,18.30
2018-10-07T02:55:58.369Z,16.90
2018-10-07T02:56:58.410Z,17.40
2018-10-07T02:57:58.449Z,16.30
2018-10-07T02:58:58.489Z,16.00
2018-10-07T02:59:58.529Z,15.60
2018-10-07T03:00:58.585Z,16.90
2018-10-07T03:01:58.614Z,16.20
2018-10-07T03:02:58.650Z,18.00
2018-10-07T03:03:58.690Z,18.10
2018-10-07T03:04:58.729Z,19.60
2018-10-07T03:05:58.768Z,17.50
2018-10-07T03:06:58.858Z,16.70
2018-10-07T03:07:58.853Z,17.80
2018-10-07T03:08:58.887Z,18.80
2018-10-07T03:09:58.929Z,20.00
2018-10-07T03:10:58.975Z,17.00
2018-10-07T03:11:59.006Z,18.90
2018-10-07T03:12:59.045Z,20.50
2018-10-07T03:13:59.137Z,21.00
2018-10-07T03:14:59.126Z,19.40
2018-10-07T03:15:59.166Z,19.70
2018-10-07T03:16:59.205Z,19.40
2018-10-07T03:17:59.253Z,22.00
2018-10-07T03:18:59.298Z,22.00
2018-10-07T03:19:59.326Z,21.80
2018-10-07T03:20:59.466Z,19.70
2018-10-07T03:21:59.405Z,20.60
2018-10-07T03:22:59.444Z,20.60
2018-10-07T03:23:59.485Z,18.80
2018-10-07T03:24:59.524Z,18.80
2018-10-07T03:25:59.564Z,20.10
2018-10-07T03:26:59.614Z,16.50
2018-10-07T03:27:59.646Z,17.10
2018-10-07T03:28:59.684Z,16.60
2018-10-07T03:29:59.732Z,15.30
2018-10-07T03:30:59.766Z,16.50
2018-10-07T03:31:59.803Z,18.10
2018-10-07T03:32:59.843Z,15.20
2018-10-07T03:33:59.885Z,19.60
2018-10-07T03:34:59.926Z,17.80
2018-10-07T03:35:59.983Z,21.60
2018-10-07T03:37:00.003Z,33.70
2018-10-07T03:38:00.044Z,43.50
2018-10-07T03:39:00.085Z,26.00
2018-10-07T03:40:00.174Z,27.10
2018-10-07T03:41:00.164Z,25.10
2018-10-07T03:42:00.207Z,23.40
2018-10-07T03:43:00.246Z,23.00
2018-10-07T03:44:00.283Z,20.10
2018-10-07T03:45:00.324Z,21.40
2018-10-07T03:46:00.379Z,18.20
2018-10-07T03:47:00.693Z,17.00
2018-10-07T03:48:00.443Z,17.90
2018-10-07T03:49:00.484Z,21.60
2018-10-07T03:50:00.523Z,19.80
2018-10-07T03:51:00.562Z,18.60
2018-10-07T03:52:00.604Z,18.70
2018-10-07T03:53:00.642Z,18.50
2018-10-07T03:54:00.684Z,17.00
2018-10-07T03:55:00.724Z,17.40
2018-10-07T03:56:00.766Z,17.90
2018-10-07T03:57:00.823Z,18.10
2018-10-07T03:58:00.847Z,17.40
2018-10-07T03:59:00.886Z,16.50
2018-10-07T04:00:00.925Z,18.00
2018-10-07T04:01:00.964Z,16.10
2018-10-07T04:02:01.004Z,15.90
2018-10-07T04:03:01.048Z,16.20
2018-10-07T04:04:01.090Z,17.20
2018-10-07T04:05:01.127Z,15.90
2018-10-07T04:06:01.168Z,18.90
2018-10-07T04:07:01.206Z,17.00
2018-10-07T04:08:01.247Z,17.00
2018-10-07T04:09:01.286Z,15.80
2018-10-07T04:10:01.341Z,16.50
2018-10-07T04:11:01.367Z,18.80
2018-10-07T04:12:01.405Z,15.40
2018-10-07T04:13:01.447Z,17.10
2018-10-07T04:14:01.488Z,19.60
2018-10-07T04:15:01.533Z,20.60
2018-10-07T04:16:01.571Z,18.80
2018-10-07T04:17:01.607Z,18.20
2018-10-07T04:18:01.651Z,17.00
2018-10-07T04:19:01.688Z,15.80
2018-10-07T04:20:01.728Z,20.50
2018-10-07T04:21:01.768Z,25.70
2018-10-07T04:22:01.810Z,21.50
2018-10-07T04:23:01.850Z,26.30
2018-10-07T04:24:01.887Z,31.60
2018-10-07T04:25:01.934Z,39.20
2018-10-07T04:26:01.971Z,36.40
2018-10-07T04:27:02.010Z,32.70
2018-10-07T04:28:02.051Z,32.70
2018-10-07T04:29:02.090Z,42.40
2018-10-07T04:30:02.132Z,56.80
2018-10-07T04:31:02.169Z,57.40
2018-10-07T04:32:02.213Z,42.20
2018-10-07T04:33:02.251Z,33.00
2018-10-07T04:34:02.291Z,33.20
2018-10-07T04:35:02.352Z,34.70
2018-10-07T04:36:02.377Z,35.80
2018-10-07T04:37:02.638Z,28.10
2018-10-07T04:38:02.452Z,31.20
2018-10-07T04:39:02.494Z,31.30
2018-10-07T04:40:02.672Z,32.80
2018-10-07T04:41:02.569Z,36.50
2018-10-07T04:42:02.612Z,36.30
2018-10-07T04:43:02.651Z,31.80
2018-10-07T04:44:02.692Z,32.30
2018-10-07T04:45:02.740Z,29.80
2018-10-07T04:46:02.786Z,32.90
2018-10-07T04:47:02.813Z,30.90
2018-10-07T04:48:02.862Z,30.50
2018-10-07T04:49:02.893Z,29.50
2018-10-07T04:50:02.933Z,30.20
2018-10-07T04:51:02.977Z,25.10
2018-10-07T04:52:03.015Z,30.80
2018-10-07T04:53:03.053Z,26.50
2018-10-07T04:54:03.095Z,28.40
2018-10-07T04:55:03.137Z,30.00
2018-10-07T04:56:03.185Z,28.90
2018-10-07T04:57:03.217Z,32.70
2018-10-07T04:58:03.256Z,37.50
2018-10-07T04:59:03.302Z,41.40
2018-10-07T05:00:03.349Z,60.50
2018-10-07T05:01:03.377Z,65.20
2018-10-07T05:02:03.418Z,49.50
2018-10-07T05:03:03.459Z,41.50
2018-10-07T05:04:03.500Z,42.20
2018-10-07T05:05:03.537Z,40.90
2018-10-07T05:06:03.578Z,41.40
2018-10-07T05:07:03.628Z,35.10
2018-10-07T05:08:03.658Z,39.20
2018-10-07T05:09:03.700Z,41.10
2018-10-07T05:10:03.740Z,33.70
2018-10-07T05:11:03.781Z,42.70
2018-10-07T05:12:03.830Z,41.20
2018-10-07T05:13:03.909Z,47.70
2018-10-07T05:14:03.900Z,40.60
2018-10-07T05:15:03.941Z,34.60
2018-10-07T05:16:03.980Z,33.60
2018-10-07T05:17:04.025Z,35.90
2018-10-07T05:18:04.062Z,33.10
2018-10-07T05:19:04.102Z,94.40
2018-10-07T05:20:04.192Z,47.50
2018-10-07T05:21:04.252Z,68.50
2018-10-07T05:22:04.223Z,80.20
2018-10-07T05:23:04.263Z,61.10
2018-10-07T05:24:04.305Z,67.90
2018-10-07T05:25:04.346Z,65.10
2018-10-07T05:26:04.387Z,62.10
2018-10-07T05:27:04.428Z,70.20
2018-10-07T05:28:04.466Z,101.10
2018-10-07T05:29:04.531Z,95.00
2018-10-07T05:30:04.547Z,43.40
2018-10-07T05:31:04.588Z,59.70
2018-10-07T05:32:04.628Z,54.80
2018-10-07T05:33:04.698Z,74.20
2018-10-07T05:34:04.713Z,80.00
2018-10-07T05:35:04.754Z,130.50
2018-10-07T05:36:04.821Z,149.50
2018-10-07T05:37:04.837Z,124.00
2018-10-07T05:38:04.871Z,104.30
2018-10-07T05:39:04.911Z,108.00
2018-10-07T05:40:05.021Z,162.60
2018-10-07T05:41:04.991Z,131.50
2018-10-07T05:42:05.039Z,186.00
2018-10-07T05:43:05.074Z,127.80
2018-10-07T05:44:05.113Z,116.70
2018-10-07T05:45:05.152Z,96.30
2018-10-07T05:46:05.193Z,162.30
2018-10-07T05:47:05.249Z,119.90
2018-10-07T05:48:05.279Z,106.60
2018-10-07T05:49:05.314Z,148.40
2018-10-07T05:50:05.365Z,70.80
2018-10-07T05:51:05.397Z,79.10
2018-10-07T05:52:05.436Z,88.80
2018-10-07T05:53:05.484Z,102.90
2018-10-07T05:54:05.518Z,81.00
2018-10-07T05:55:05.558Z,89.50
2018-10-07T05:56:05.601Z,75.90
2018-10-07T05:57:05.645Z,70.80
2018-10-07T05:58:05.679Z,65.60
2018-10-07T05:59:05.720Z,76.90
2018-10-07T06:00:05.760Z,50.80
2018-10-07T06:01:05.801Z,58.20
2018-10-07T06:02:05.926Z,51.00
2018-10-07T06:03:05.887Z,39.70
2018-10-07T06:04:05.923Z,38.80
2018-10-07T06:05:05.965Z,51.60
2018-10-07T06:06:06.005Z,55.30
2018-10-07T06:07:06.049Z,44.00
2018-10-07T06:08:06.089Z,41.00
2018-10-07T06:09:06.129Z,53.00
2018-10-07T06:10:06.168Z,46.60
2018-10-07T06:11:06.208Z,47.00
2018-10-07T06:12:06.255Z,44.40
2018-10-07T06:13:06.289Z,38.20
2018-10-07T06:14:06.329Z,36.00
2018-10-07T06:15:06.375Z,38.40
2018-10-07T06:16:06.411Z,46.70
2018-10-07T06:17:06.451Z,56.60
2018-10-07T06:18:06.499Z,48.80
2018-10-07T06:19:06.533Z,41.40
2018-10-07T06:20:06.573Z,34.40
2018-10-07T06:21:06.613Z,38.00
2018-10-07T06:22:06.654Z,31.80
2018-10-07T06:23:06.695Z,35.20
2018-10-07T06:24:06.739Z,33.80
2018-10-07T06:25:06.777Z,33.00
2018-10-07T06:26:06.828Z,32.40
2018-10-07T06:27:06.875Z,32.00
2018-10-07T06:28:06.901Z,31.50
2018-10-07T06:29:06.940Z,28.20
2018-10-07T06:30:06.981Z,29.80
2018-10-07T06:31:07.022Z,29.90
2018-10-07T06:32:07.064Z,29.70
2018-10-07T06:33:07.101Z,28.80
2018-10-07T06:34:07.143Z,26.50
2018-10-07T06:35:07.185Z,28.50
2018-10-07T06:36:07.226Z,27.30
2018-10-07T06:37:07.265Z,24.60
2018-10-07T06:38:07.306Z,27.60
2018-10-07T06:39:07.356Z,24.60
2018-10-07T06:40:07.391Z,23.60
2018-10-07T06:41:07.427Z,25.40
2018-10-07T06:42:07.472Z,23.90
2018-10-07T06:43:07.511Z,19.50
2018-10-07T06:44:07.553Z,20.70
2018-10-07T06:45:07.593Z,19.10
2018-10-07T06:46:07.634Z,18.20
2018-10-07T06:47:07.674Z,18.70
2018-10-07T06:48:07.719Z,15.10
2018-10-07T06:49:07.756Z,15.60
2018-10-07T06:50:07.801Z,15.70
2018-10-07T06:51:07.838Z,16.40
2018-10-07T06:52:07.880Z,17.10
2018-10-07T06:53:07.919Z,17.70
2018-10-07T06:54:07.963Z,17.60
2018-10-07T06:55:08.005Z,18.60
2018-10-07T06:56:08.096Z,19.20
2018-10-07T06:57:08.087Z,17.10
2018-10-07T06:58:08.127Z,18.60
2018-10-07T06:59:08.173Z,18.30
2018-10-07T07:00:08.366Z,18.30
2018-10-07T07:01:08.252Z,19.10
2018-10-07T07:02:08.294Z,18.60
2018-10-07T07:03:08.338Z,18.30
2018-10-07T07:04:08.423Z,17.30
2018-10-07T07:05:08.413Z,18.30
2018-10-07T07:06:08.458Z,18.30
2018-10-07T07:07:08.497Z,18.60
2018-10-07T07:08:08.555Z,18.60
2018-10-07T07:09:08.587Z,17.60
2018-10-07T07:10:08.626Z,17.00
2018-10-07T07:11:08.661Z,17.30
2018-10-07T07:12:08.704Z,16.30
2018-10-07T07:13:08.834Z,15.30
2018-10-07T07:14:08.788Z,16.30
2018-10-07T07:15:08.826Z,16.00
2018-10-07T07:16:08.867Z,15.60
2018-10-07T07:17:08.907Z,16.40
2018-10-07T07:18:08.948Z,15.40
2018-10-07T07:19:08.992Z,16.70
2018-10-07T07:20:09.362Z,17.40
2018-10-07T07:21:09.076Z,16.90
2018-10-07T07:22:09.122Z,17.90
2018-10-07T07:23:09.157Z,17.10
2018-10-07T07:24:09.199Z,17.90
2018-10-07T07:25:09.255Z,22.30
2018-10-07T07:26:09.279Z,17.30
2018-10-07T07:27:09.320Z,19.20
2018-10-07T07:28:09.367Z,18.10
2018-10-07T07:29:09.418Z,18.60
2018-10-07T07:30:09.452Z,17.80
2018-10-07T07:31:09.487Z,18.80
2018-10-07T07:32:09.536Z,18.90
2018-10-07T07:33:09.570Z,18.80
2018-10-07T07:34:09.612Z,18.30
2018-10-07T07:35:09.650Z,18.70
2018-10-07T07:36:09.690Z,17.70
2018-10-07T07:37:09.740Z,18.80
2018-10-07T07:38:09.774Z,19.30
2018-10-07T07:39:09.816Z,19.00
2018-10-07T07:40:09.863Z,21.00
2018-10-07T07:41:09.898Z,20.10
2018-10-07T07:42:09.961Z,20.70
2018-10-07T07:43:09.981Z,21.10
2018-10-07T07:44:10.023Z,21.40
2018-10-07T07:45:10.065Z,21.40
2018-10-07T07:46:10.114Z,20.00
2018-10-07T07:47:10.150Z,20.10
2018-10-07T07:48:10.191Z,19.60
2018-10-07T07:49:10.267Z,20.30
2018-10-07T07:50:10.275Z,19.90
2018-10-07T07:51:10.316Z,21.50
2018-10-07T07:52:10.365Z,21.20
2018-10-07T07:53:10.399Z,22.20
2018-10-07T07:54:10.441Z,20.90
2018-10-07T07:55:10.484Z,22.80
2018-10-07T07:56:10.524Z,24.00
2018-10-07T07:57:10.574Z,22.90
2018-10-07T07:58:10.611Z,20.10
2018-10-07T07:59:10.653Z,20.80
2018-10-07T08:00:10.693Z,17.70
2018-10-07T08:01:10.737Z,17.20
2018-10-07T08:02:10.778Z,16.70
2018-10-07T08:03:10.819Z,17.00
2018-10-07T08:04:10.869Z,19.60
2018-10-07T08:05:10.901Z,17.50
2018-10-07T08:06:10.943Z,16.50
2018-10-07T08:07:10.987Z,16.50
2018-10-07T08:08:11.028Z,17.00
2018-10-07T08:09:11.070Z,17.60
2018-10-07T08:10:11.112Z,18.90
2018-10-07T08:11:11.156Z,18.10
2018-10-07T08:12:11.196Z,20.30
2018-10-07T08:13:11.238Z,19.90
2018-10-07T08:14:11.279Z,23.70
2018-10-07T08:15:11.324Z,27.40
2018-10-07T08:16:11.366Z,24.20
2018-10-07T08:17:11.450Z,23.90
2018-10-07T08:18:11.448Z,25.50
2018-10-07T08:19:11.492Z,27.60
2018-10-07T08:20:11.539Z,31.80
2018-10-07T08:21:11.576Z,24.50
2018-10-07T08:22:11.618Z,25.10
2018-10-07T08:23:11.690Z,26.80
2018-10-07T08:24:11.704Z,29.80
2018-10-07T08:25:11.744Z,32.40
2018-10-07T08:26:11.789Z,34.10
2018-10-07T08:27:11.830Z,37.20
2018-10-07T08:28:11.872Z,44.90
2018-10-07T08:29:11.914Z,43.20
2018-10-07T08:30:11.956Z,45.30
2018-10-07T08:31:12.000Z,49.90
2018-10-07T08:32:12.043Z,50.30
2018-10-07T08:33:12.083Z,54.10
2018-10-07T08:34:12.125Z,63.80
2018-10-07T08:35:12.177Z,69.80
2018-10-07T08:36:12.218Z,69.40
2018-10-07T08:37:12.258Z,71.10
2018-10-07T08:38:12.302Z,77.10
2018-10-07T08:39:12.337Z,86.60
2018-10-07T08:40:12.379Z,84.00
2018-10-07T08:41:12.425Z,81.50
2018-10-07T08:42:12.471Z,64.30
2018-10-07T08:43:12.505Z,80.90
2018-10-07T08:44:12.546Z,72.70
2018-10-07T08:45:12.589Z,74.70
2018-10-07T08:46:12.632Z,77.50
2018-10-07T08:47:12.673Z,75.20
2018-10-07T08:48:12.717Z,72.80
2018-10-07T08:49:12.757Z,68.60
2018-10-07T08:50:12.799Z,71.80
2018-10-07T08:51:12.839Z,64.80
2018-10-07T08:52:12.885Z,66.00
2018-10-07T08:53:12.932Z,66.00
2018-10-07T08:54:12.975Z,60.70
2018-10-07T08:55:13.018Z,62.20
2018-10-07T08:56:13.253Z,59.00
2018-10-07T08:57:13.117Z,58.90
2018-10-07T08:58:13.142Z,55.80
2018-10-07T08:59:13.176Z,56.30
2018-10-07T09:00:13.217Z,57.30
2018-10-07T09:01:13.258Z,55.40
2018-10-07T09:02:13.396Z,56.50
2018-10-07T09:03:13.353Z,53.90
2018-10-07T09:04:13.387Z,53.30
2018-10-07T09:05:13.425Z,54.80
2018-10-07T09:06:13.467Z,54.80
2018-10-07T09:07:13.516Z,49.40
2018-10-07T09:08:13.550Z,49.00
2018-10-07T09:09:13.597Z,45.70
2018-10-07T09:10:13.633Z,51.30
2018-10-07T09:11:13.678Z,40.60
2018-10-07T09:12:13.716Z,43.00
2018-10-07T09:13:13.756Z,43.40
2018-10-07T09:14:13.798Z,40.90
2018-10-07T09:15:13.842Z,42.90
2018-10-07T09:16:13.882Z,41.50
2018-10-07T09:17:13.929Z,42.30
2018-10-07T09:18:13.966Z,37.60
2018-10-07T09:19:14.007Z,44.00
2018-10-07T09:20:14.049Z,43.00
2018-10-07T09:21:14.091Z,35.30
2018-10-07T09:22:14.149Z,34.00
2018-10-07T09:23:14.173Z,41.80
2018-10-07T09:24:14.215Z,36.30
2018-10-07T09:25:14.255Z,31.80
2018-10-07T09:26:14.297Z,29.30
2018-10-07T09:27:14.405Z,29.20
2018-10-07T09:28:14.380Z,29.40
2018-10-07T09:29:14.425Z,31.90
2018-10-07T09:30:14.463Z,29.70
2018-10-07T09:31:14.504Z,30.30
2018-10-07T09:32:14.598Z,30.00
2018-10-07T09:33:14.587Z,32.70
2018-10-07T09:34:14.628Z,29.50
2018-10-07T09:35:14.669Z,31.50
2018-10-07T09:36:14.711Z,29.30
2018-10-07T09:37:14.750Z,31.30
2018-10-07T09:38:14.793Z,27.00
2018-10-07T09:39:14.848Z,28.50
2018-10-07T09:40:14.875Z,28.80
2018-10-07T09:41:14.916Z,27.60
2018-10-07T09:42:14.958Z,28.70
2018-10-07T09:43:15.017Z,30.00
2018-10-07T09:44:15.043Z,28.60
2018-10-07T09:45:15.085Z,29.90
2018-10-07T09:46:15.133Z,30.40
2018-10-07T09:47:15.233Z,28.80
2018-10-07T09:48:15.225Z,29.50
2018-10-07T09:49:15.262Z,28.60
2018-10-07T09:50:15.299Z,30.50
2018-10-07T09:51:15.338Z,30.00
2018-10-07T09:52:15.412Z,28.10
2018-10-07T09:53:15.415Z,27.90
2018-10-07T09:54:15.456Z,31.40
2018-10-07T09:55:15.496Z,29.50
2018-10-07T09:56:15.537Z,30.70
2018-10-07T09:57:15.578Z,32.40
2018-10-07T09:58:15.617Z,30.30
2018-10-07T09:59:15.659Z,27.70
2018-10-07T10:00:15.701Z,29.80
2018-10-07T10:01:15.768Z,29.80
2018-10-07T10:02:15.783Z,28.40
2018-10-07T10:03:15.833Z,28.10
2018-10-07T10:04:15.970Z,27.90
2018-10-07T10:05:15.905Z,31.40
2018-10-07T10:06:15.946Z,31.40
2018-10-07T10:07:15.992Z,30.50
2018-10-07T10:08:16.031Z,30.20
2018-10-07T10:09:16.087Z,31.80
2018-10-07T10:10:16.122Z,31.40
2018-10-07T10:11:16.254Z,33.90
2018-10-07T10:12:16.200Z,29.60
2018-10-07T10:13:16.234Z,30.10
2018-10-07T10:14:16.399Z,29.40
2018-10-07T10:15:16.318Z,30.20
2018-10-07T10:16:16.361Z,30.60
2018-10-07T10:17:16.403Z,28.60
2018-10-07T10:18:16.444Z,29.80
2018-10-07T10:19:16.488Z,28.00
2018-10-07T10:20:16.528Z,27.80
2018-10-07T10:21:16.566Z,27.90
2018-10-07T10:22:16.608Z,28.10
2018-10-07T10:23:16.659Z,27.70
2018-10-07T10:24:16.700Z,28.30
2018-10-07T10:25:16.731Z,29.80
2018-10-07T10:26:16.774Z,28.40
2018-10-07T10:27:16.816Z,31.10
2018-10-07T10:28:16.860Z,29.10
2018-10-07T10:29:16.896Z,28.30
2018-10-07T10:30:16.989Z,26.20
2018-10-07T10:31:16.986Z,25.90
2018-10-07T10:32:17.021Z,26.80
2018-10-07T10:33:17.064Z,26.00
2018-10-07T10:34:17.102Z,25.90
2018-10-07T10:35:17.142Z,25.80
2018-10-07T10:36:17.184Z,29.80
2018-10-07T10:37:17.227Z,26.40
2018-10-07T10:38:17.265Z,26.60
2018-10-07T10:39:17.309Z,26.00
2018-10-07T10:40:17.358Z,23.90
2018-10-07T10:41:17.394Z,26.20
2018-10-07T10:42:17.494Z,24.90
2018-10-07T10:43:17.473Z,25.50
2018-10-07T10:44:17.526Z,24.30
2018-10-07T10:45:17.554Z,22.60
2018-10-07T10:46:17.604Z,24.70
2018-10-07T10:47:17.639Z,23.70
2018-10-07T10:48:17.682Z,23.80
2018-10-07T10:49:17.728Z,27.90
2018-10-07T10:50:17.761Z,21.70
2018-10-07T10:51:17.804Z,22.20
2018-10-07T10:52:17.848Z,24.00
2018-10-07T10:53:17.887Z,22.70
2018-10-07T10:54:17.940Z,20.10
2018-10-07T10:55:18.072Z,23.30
2018-10-07T10:56:18.014Z,18.90
2018-10-07T10:57:18.061Z,18.40
2018-10-07T10:58:18.096Z,18.50
2018-10-07T10:59:18.138Z,17.20
2018-10-07T11:00:18.180Z,18.90
2018-10-07T11:01:18.224Z,19.20
2018-10-07T11:02:18.276Z,18.40
2018-10-07T11:03:18.303Z,19.10
2018-10-07T11:04:18.350Z,17.70
2018-10-07T11:05:18.387Z,17.40
2018-10-07T11:06:18.436Z,18.10
2018-10-07T11:07:18.470Z,19.60
2018-10-07T11:08:18.512Z,18.80
2018-10-07T11:09:18.608Z,18.70
2018-10-07T11:10:18.595Z,17.60
2018-10-07T11:11:18.638Z,16.10
2018-10-07T11:12:18.685Z,15.40
2018-10-07T11:13:18.728Z,13.40
2018-10-07T11:14:18.761Z,13.00
2018-10-07T11:15:18.851Z,13.10
2018-10-07T11:16:18.847Z,13.70
2018-10-07T11:17:18.889Z,13.40
2018-10-07T11:18:18.927Z,12.30
2018-10-07T11:19:19.033Z,12.30
2018-10-07T11:20:19.025Z,12.30
2018-10-07T11:21:19.060Z,11.30
2018-10-07T11:22:19.095Z,13.60
2018-10-07T11:23:19.135Z,12.70
2018-10-07T11:24:19.181Z,14.00
2018-10-07T11:25:19.221Z,12.40
2018-10-07T11:26:19.378Z,12.60
2018-10-07T11:27:19.303Z,10.60
2018-10-07T11:28:19.354Z,10.50
2018-10-07T11:29:19.386Z,11.10
2018-10-07T11:30:19.427Z,10.80
2018-10-07T11:31:19.471Z,9.60
2018-10-07T11:32:19.512Z,10.00
2018-10-07T11:33:19.553Z,10.20
2018-10-07T11:34:19.595Z,8.90
2018-10-07T11:35:19.638Z,8.30
2018-10-07T11:36:19.679Z,10.20
2018-10-07T11:37:19.720Z,10.50
2018-10-07T11:38:19.768Z,9.30
2018-10-07T11:39:19.806Z,10.30
2018-10-07T11:40:19.859Z,11.30
2018-10-07T11:41:19.889Z,10.90
2018-10-07T11:42:19.935Z,9.90
2018-10-07T11:43:19.974Z,10.30
2018-10-07T11:44:20.020Z,9.00
2018-10-07T11:45:20.057Z,10.40
2018-10-07T11:46:20.102Z,9.70
2018-10-07T11:47:20.145Z,10.10
2018-10-07T11:48:20.186Z,10.40
2018-10-07T11:49:20.252Z,8.70
2018-10-07T11:50:20.270Z,10.20
2018-10-07T11:51:20.314Z,9.80
2018-10-07T11:52:20.356Z,9.10
2018-10-07T11:53:20.398Z,10.30
2018-10-07T11:54:20.440Z,9.10
2018-10-07T11:55:20.481Z,9.50
2018-10-07T11:56:20.528Z,9.30
2018-10-07T11:57:20.577Z,9.20
2018-10-07T11:58:20.617Z,9.50
2018-10-07T11:59:20.651Z,8.50
2018-10-07T12:00:20.695Z,9.20
2018-10-07T12:01:20.736Z,9.80
2018-10-07T12:02:20.858Z,9.60
2018-10-07T12:03:20.824Z,9.30
2018-10-07T12:04:20.876Z,9.00
2018-10-07T12:05:20.907Z,9.70
2018-10-07T12:06:20.953Z,10.10
2018-10-07T12:07:20.993Z,9.10
2018-10-07T12:08:21.037Z,8.60
2018-10-07T12:09:21.078Z,9.80
2018-10-07T12:10:21.240Z,9.80
2018-10-07T12:11:21.165Z,9.50
2018-10-07T12:12:21.230Z,9.30
2018-10-07T12:13:21.250Z,8.60
2018-10-07T12:14:21.298Z,9.20
2018-10-07T12:15:21.334Z,9.20
2018-10-07T12:16:21.448Z,10.10
2018-10-07T12:17:21.427Z,9.80
2018-10-07T12:18:21.464Z,12.30
2018-10-07T12:19:21.515Z,12.80
2018-10-07T12:20:21.551Z,10.50
2018-10-07T12:21:21.593Z,11.10
2018-10-07T12:22:21.635Z,11.50
2018-10-07T12:23:21.686Z,9.70
2018-10-07T12:24:21.722Z,11.30
2018-10-07T12:25:21.762Z,10.50
2018-10-07T12:26:21.803Z,9.90
2018-10-07T12:27:21.847Z,13.70
2018-10-07T12:28:21.889Z,11.30
2018-10-07T12:29:21.938Z,11.80
2018-10-07T12:30:21.974Z,11.10
2018-10-07T12:31:22.015Z,10.30
2018-10-07T12:32:22.060Z,10.80
2018-10-07T12:33:22.105Z,8.90
2018-10-07T12:34:22.144Z,10.20
2018-10-07T12:35:22.186Z,10.10
2018-10-07T12:36:22.229Z,9.30
2018-10-07T12:37:22.276Z,9.00
2018-10-07T12:38:22.318Z,7.60
2018-10-07T12:39:22.357Z,9.80
2018-10-07T12:40:22.407Z,8.20
2018-10-07T12:41:22.441Z,8.30
2018-10-07T12:42:22.501Z,8.20
2018-10-07T12:43:22.526Z,8.90
2018-10-07T12:44:22.570Z,7.50
2018-10-07T12:45:22.617Z,10.20
2018-10-07T12:46:22.657Z,9.60
2018-10-07T12:47:22.697Z,10.20
2018-10-07T12:48:22.761Z,8.60
2018-10-07T12:49:22.789Z,8.40
2018-10-07T12:50:22.826Z,9.00
2018-10-07T12:51:22.868Z,8.30
2018-10-07T12:52:22.918Z,7.40
2018-10-07T12:53:22.954Z,7.70
2018-10-07T12:54:23.004Z,7.10